Terminal Aerodrome Forecast
Issued by NWS

Home | Current Version | Previous Version | Text Only | Print | Product List | Glossary On
Versions: 1 2 3 4 5 6 7 8 9 10 11 12 13 14 15 16 17 18 19 20 21 22 23 24 25 26
176
FTAK31 PAJN 111136
TAFAJN
TAF
PAJN 111136Z 1112/1212 12015G22KT 6SM -SHRA SCT020 BKN040 BKN080
      WS020/14025KT
     FM111800 12010G15KT P6SM VCSH SCT020 BKN050 WS020/14025KT
     FM112200 10005KT P6SM SCT035 BKN060
     FM120400 VRB05KT 3SM BCFG SCT003 BKN100 WS020/07020KT
     FM121000 07007KT P6SM OVC080 WS020/07025KT=

USA.gov is the U.S. government's official web portal to all federal, state and local government web resources and services.